sensor_id;sensor_type;location;lat;lon;timestamp;pressure;altitude;pressure_sealevel;temperature;humidity
36502;BME280;25393;46.108;3.390;2023-04-08T00:00:33;98257.88;;;5.44;85.59
36502;BME280;25393;46.108;3.390;2023-04-08T00:03:00;98263.25;;;5.42;84.82
36502;BME280;25393;46.108;3.390;2023-04-08T00:05:28;98256.94;;;5.24;84.52
36502;BME280;25393;46.108;3.390;2023-04-08T00:07:54;98261.13;;;5.27;84.82
36502;BME280;25393;46.108;3.390;2023-04-08T00:10:21;98261.09;;;5.17;86.69
36502;BME280;25393;46.108;3.390;2023-04-08T00:12:47;98266.97;;;5.30;87.74
36502;BME280;25393;46.108;3.390;2023-04-08T00:15:21;98265.63;;;5.45;87.00
36502;BME280;25393;46.108;3.390;2023-04-08T00:17:47;98252.06;;;5.40;84.95
36502;BME280;25393;46.108;3.390;2023-04-08T00:20:16;98263.25;;;5.42;82.97
36502;BME280;25393;46.108;3.390;2023-04-08T00:22:43;98257.50;;;5.28;81.84
36502;BME280;25393;46.108;3.390;2023-04-08T00:25:09;98257.22;;;5.21;83.35
36502;BME280;25393;46.108;3.390;2023-04-08T00:27:36;98242.56;;;4.98;84.75
36502;BME280;25393;46.108;3.390;2023-04-08T00:30:03;98256.16;;;5.03;84.59
36502;BME280;25393;46.108;3.390;2023-04-08T00:32:29;98257.38;;;4.99;84.91
36502;BME280;25393;46.108;3.390;2023-04-08T00:34:56;98265.41;;;5.07;86.01
36502;BME280;25393;46.108;3.390;2023-04-08T00:37:23;98254.16;;;5.16;88.40
36502;BME280;25393;46.108;3.390;2023-04-08T00:39:53;98250.63;;;5.06;87.29
36502;BME280;25393;46.108;3.390;2023-04-08T00:42:20;98243.13;;;5.01;86.81
36502;BME280;25393;46.108;3.390;2023-04-08T00:44:47;98250.38;;;5.09;88.06
36502;BME280;25393;46.108;3.390;2023-04-08T00:47:14;98243.91;;;5.13;88.25
36502;BME280;25393;46.108;3.390;2023-04-08T00:49:42;98239.91;;;5.19;87.66
36502;BME280;25393;46.108;3.390;2023-04-08T00:52:09;98248.25;;;5.24;87.92
36502;BME280;25393;46.108;3.390;2023-04-08T00:54:36;98248.69;;;5.29;86.48
36502;BME280;25393;46.108;3.390;2023-04-08T00:57:04;98244.72;;;5.34;84.86
36502;BME280;25393;46.108;3.390;2023-04-08T00:59:32;98246.31;;;5.26;83.99
36502;BME280;25393;46.108;3.390;2023-04-08T01:02:17;98244.13;;;5.31;84.19
36502;BME280;25393;46.108;3.390;2023-04-08T01:05:12;98244.00;;;5.32;83.33
36502;BME280;25393;46.108;3.390;2023-04-08T01:07:46;98230.94;;;5.21;83.31
36502;BME280;25393;46.108;3.390;2023-04-08T01:10:21;98236.50;;;5.28;85.90
36502;BME280;25393;46.108;3.390;2023-04-08T01:13:07;98233.56;;;5.21;85.26
36502;BME280;25393;46.108;3.390;2023-04-08T01:15:36;98237.25;;;5.09;85.90
36502;BME280;25393;46.108;3.390;2023-04-08T01:18:06;98221.50;;;4.88;86.23
36502;BME280;25393;46.108;3.390;2023-04-08T01:20:33;98241.16;;;4.94;85.74
36502;BME280;25393;46.108;3.390;2023-04-08T01:27:56;98242.94;;;4.73;88.15
36502;BME280;25393;46.108;3.390;2023-04-08T01:30:24;98249.66;;;4.86;86.17
36502;BME280;25393;46.108;3.390;2023-04-08T01:32:54;98247.56;;;4.80;83.53
36502;BME280;25393;46.108;3.390;2023-04-08T01:35:25;98234.63;;;4.68;82.13
36502;BME280;25393;46.108;3.390;2023-04-08T01:37:52;98239.47;;;4.51;82.60
36502;BME280;25393;46.108;3.390;2023-04-08T01:40:26;98242.81;;;4.53;82.67
36502;BME280;25393;46.108;3.390;2023-04-08T01:42:55;98239.72;;;4.48;84.15
36502;BME280;25393;46.108;3.390;2023-04-08T01:45:22;98227.59;;;4.36;85.05
36502;BME280;25393;46.108;3.390;2023-04-08T01:47:51;98227.09;;;4.42;83.86
36502;BME280;25393;46.108;3.390;2023-04-08T01:50:18;98233.53;;;4.49;83.48
36502;BME280;25393;46.108;3.390;2023-04-08T01:52:48;98241.56;;;4.58;83.74
36502;BME280;25393;46.108;3.390;2023-04-08T01:55:16;98237.31;;;4.57;82.71
36502;BME280;25393;46.108;3.390;2023-04-08T01:57:47;98245.63;;;4.62;81.21
36502;BME280;25393;46.108;3.390;2023-04-08T02:00:15;98232.53;;;4.50;81.85
36502;BME280;25393;46.108;3.390;2023-04-08T02:02:44;98235.75;;;4.54;81.63
36502;BME280;25393;46.108;3.390;2023-04-08T02:05:13;98227.22;;;4.41;82.84
36502;BME280;25393;46.108;3.390;2023-04-08T02:07:40;98228.06;;;4.41;83.83
36502;BME280;25393;46.108;3.390;2023-04-08T02:10:06;98223.19;;;4.37;84.77
36502;BME280;25393;46.108;3.390;2023-04-08T02:12:33;98225.38;;;4.32;84.90
36502;BME280;25393;46.108;3.390;2023-04-08T02:15:00;98220.38;;;4.29;85.23
36502;BME280;25393;46.108;3.390;2023-04-08T02:17:54;98238.22;;;4.35;85.69
36502;BME280;25393;46.108;3.390;2023-04-08T02:20:36;98235.84;;;4.32;86.63
36502;BME280;25393;46.108;3.390;2023-04-08T02:23:14;98241.53;;;4.37;86.64
36502;BME280;25393;46.108;3.390;2023-04-08T02:25:43;98242.97;;;4.41;86.04
36502;BME280;25393;46.108;3.390;2023-04-08T02:28:11;98246.94;;;4.35;84.61
36502;BME280;25393;46.108;3.390;2023-04-08T02:30:41;98240.38;;;4.30;84.10
36502;BME280;25393;46.108;3.390;2023-04-08T02:33:10;98240.53;;;4.28;84.32
36502;BME280;25393;46.108;3.390;2023-04-08T02:35:39;98241.72;;;4.24;85.03
36502;BME280;25393;46.108;3.390;2023-04-08T02:38:06;98240.56;;;4.17;86.18
36502;BME280;25393;46.108;3.390;2023-04-08T02:40:33;98242.75;;;4.01;86.01
36502;BME280;25393;46.108;3.390;2023-04-08T02:43:00;98239.19;;;3.91;86.12
36502;BME280;25393;46.108;3.390;2023-04-08T02:45:30;98244.47;;;3.80;86.53
36502;BME280;25393;46.108;3.390;2023-04-08T02:48:00;98238.03;;;3.73;86.38
36502;BME280;25393;46.108;3.390;2023-04-08T02:50:27;98241.97;;;3.67;87.11
36502;BME280;25393;46.108;3.390;2023-04-08T02:52:54;98239.94;;;3.71;88.40
36502;BME280;25393;46.108;3.390;2023-04-08T02:55:21;98243.75;;;3.78;89.26
36502;BME280;25393;46.108;3.390;2023-04-08T02:57:47;98244.22;;;3.83;89.99
36502;BME280;25393;46.108;3.390;2023-04-08T03:00:14;98241.59;;;3.83;89.38
36502;BME280;25393;46.108;3.390;2023-04-08T03:02:41;98228.16;;;3.76;88.68
36502;BME280;25393;46.108;3.390;2023-04-08T03:05:08;98246.25;;;3.90;88.36
36502;BME280;25393;46.108;3.390;2023-04-08T03:07:36;98236.22;;;3.84;87.26
36502;BME280;25393;46.108;3.390;2023-04-08T03:10:03;98237.31;;;3.82;88.18
36502;BME280;25393;46.108;3.390;2023-04-08T03:12:29;98229.19;;;3.74;88.15
36502;BME280;25393;46.108;3.390;2023-04-08T03:14:56;98238.25;;;3.70;88.25
36502;BME280;25393;46.108;3.390;2023-04-08T03:17:23;98237.47;;;3.58;87.64
36502;BME280;25393;46.108;3.390;2023-04-08T03:19:50;98239.84;;;3.39;87.72
36502;BME280;25393;46.108;3.390;2023-04-08T03:22:16;98239.84;;;3.39;86.10
36502;BME280;25393;46.108;3.390;2023-04-08T03:24:43;98253.41;;;3.22;86.90
36502;BME280;25393;46.108;3.390;2023-04-08T03:27:09;98247.69;;;3.06;86.97
36502;BME280;25393;46.108;3.390;2023-04-08T03:29:37;98247.44;;;2.97;88.22
36502;BME280;25393;46.108;3.390;2023-04-08T03:32:04;98243.59;;;2.90;89.96
36502;BME280;25393;46.108;3.390;2023-04-08T03:34:33;98244.31;;;2.92;90.63
36502;BME280;25393;46.108;3.390;2023-04-08T03:37:00;98253.00;;;2.93;90.72
36502;BME280;25393;46.108;3.390;2023-04-08T03:39:26;98256.69;;;2.90;90.81
36502;BME280;25393;46.108;3.390;2023-04-08T03:41:53;98259.91;;;2.83;90.57
36502;BME280;25393;46.108;3.390;2023-04-08T03:44:19;98271.56;;;2.90;91.27
36502;BME280;25393;46.108;3.390;2023-04-08T03:46:46;98261.66;;;2.82;91.45
36502;BME280;25393;46.108;3.390;2023-04-08T03:49:13;98248.34;;;2.85;92.13
36502;BME280;25393;46.108;3.390;2023-04-08T03:51:39;98263.63;;;3.03;92.40
36502;BME280;25393;46.108;3.390;2023-04-08T03:54:06;98248.13;;;2.99;92.15
36502;BME280;25393;46.108;3.390;2023-04-08T03:56:33;98259.38;;;3.13;91.17
36502;BME280;25393;46.108;3.390;2023-04-08T03:58:59;98258.31;;;3.26;90.75
36502;BME280;25393;46.108;3.390;2023-04-08T04:01:29;98256.75;;;3.35;90.91
36502;BME280;25393;46.108;3.390;2023-04-08T04:03:57;98249.47;;;3.38;90.78
36502;BME280;25393;46.108;3.390;2023-04-08T04:06:24;98248.28;;;3.53;90.66
36502;BME280;25393;46.108;3.390;2023-04-08T04:08:54;98260.81;;;3.61;89.24
36502;BME280;25393;46.108;3.390;2023-04-08T04:11:21;98259.13;;;3.60;87.89
36502;BME280;25393;46.108;3.390;2023-04-08T04:13:48;98250.91;;;3.53;87.05
36502;BME280;25393;46.108;3.390;2023-04-08T04:16:14;98255.91;;;3.45;86.86
36502;BME280;25393;46.108;3.390;2023-04-08T04:18:41;98263.06;;;3.43;87.25
36502;BME280;25393;46.108;3.390;2023-04-08T04:21:08;98251.41;;;3.47;88.58
36502;BME280;25393;46.108;3.390;2023-04-08T04:23:35;98264.03;;;3.53;89.85
36502;BME280;25393;46.108;3.390;2023-04-08T04:26:07;98248.06;;;3.45;89.88
36502;BME280;25393;46.108;3.390;2023-04-08T04:28:33;98250.66;;;3.45;87.73
36502;BME280;25393;46.108;3.390;2023-04-08T04:31:00;98270.81;;;3.34;87.20
36502;BME280;25393;46.108;3.390;2023-04-08T04:33:26;98253.75;;;3.17;89.93
36502;BME280;25393;46.108;3.390;2023-04-08T04:35:53;98262.09;;;3.22;91.02
36502;BME280;25393;46.108;3.390;2023-04-08T04:38:19;98269.75;;;3.47;91.20
36502;BME280;25393;46.108;3.390;2023-04-08T04:40:46;98273.41;;;3.45;91.45
36502;BME280;25393;46.108;3.390;2023-04-08T04:43:13;98266.38;;;3.34;89.30
36502;BME280;25393;46.108;3.390;2023-04-08T04:45:39;98276.41;;;3.29;86.25
36502;BME280;25393;46.108;3.390;2023-04-08T04:48:05;98275.69;;;3.16;85.07
36502;BME280;25393;46.108;3.390;2023-04-08T04:50:32;98279.97;;;3.06;85.01
36502;BME280;25393;46.108;3.390;2023-04-08T04:53:02;98273.13;;;2.92;85.78
36502;BME280;25393;46.108;3.390;2023-04-08T04:55:33;98284.94;;;2.98;86.52
36502;BME280;25393;46.108;3.390;2023-04-08T04:58:00;98275.06;;;3.01;87.02
36502;BME280;25393;46.108;3.390;2023-04-08T05:00:27;98271.50;;;3.03;87.12
36502;BME280;25393;46.108;3.390;2023-04-08T05:02:54;98267.66;;;3.07;86.83
36502;BME280;25393;46.108;3.390;2023-04-08T05:05:21;98269.22;;;2.98;86.65
36502;BME280;25393;46.108;3.390;2023-04-08T05:07:47;98278.91;;;3.20;90.30
36502;BME280;25393;46.108;3.390;2023-04-08T05:10:14;98282.34;;;3.31;93.93
36502;BME280;25393;46.108;3.390;2023-04-08T05:12:43;98297.81;;;3.34;93.98
36502;BME280;25393;46.108;3.390;2023-04-08T05:15:10;98281.66;;;3.29;94.15
36502;BME280;25393;46.108;3.390;2023-04-08T05:17:36;98300.81;;;3.30;92.40
36502;BME280;25393;46.108;3.390;2023-04-08T05:20:03;98287.56;;;3.20;93.49
36502;BME280;25393;46.108;3.390;2023-04-08T05:22:30;98296.63;;;3.27;93.60
36502;BME280;25393;46.108;3.390;2023-04-08T05:24:59;98302.38;;;3.32;94.56
36502;BME280;25393;46.108;3.390;2023-04-08T05:27:26;98293.19;;;3.27;95.97
36502;BME280;25393;46.108;3.390;2023-04-08T05:29:53;98307.13;;;3.38;95.97
36502;BME280;25393;46.108;3.390;2023-04-08T05:32:19;98316.53;;;3.52;96.90
36502;BME280;25393;46.108;3.390;2023-04-08T05:34:46;98324.19;;;3.55;98.58
36502;BME280;25393;46.108;3.390;2023-04-08T05:37:12;98313.84;;;3.65;99.80
36502;BME280;25393;46.108;3.390;2023-04-08T05:39:39;98314.91;;;3.62;100.00
36502;BME280;25393;46.108;3.390;2023-04-08T05:42:06;98316.44;;;3.65;100.00
36502;BME280;25393;46.108;3.390;2023-04-08T05:44:36;98315.50;;;3.66;100.00
36502;BME280;25393;46.108;3.390;2023-04-08T05:47:05;98327.41;;;3.70;100.00
36502;BME280;25393;46.108;3.390;2023-04-08T05:49:35;98335.66;;;3.76;100.00
36502;BME280;25393;46.108;3.390;2023-04-08T05:52:04;98328.38;;;3.69;100.00
36502;BME280;25393;46.108;3.390;2023-04-08T05:54:32;98338.84;;;3.69;100.00
36502;BME280;25393;46.108;3.390;2023-04-08T05:56:59;98346.84;;;3.67;100.00
36502;BME280;25393;46.108;3.390;2023-04-08T05:59:25;98334.31;;;3.60;100.00
36502;BME280;25393;46.108;3.390;2023-04-08T06:01:52;98334.91;;;3.52;100.00
36502;BME280;25393;46.108;3.390;2023-04-08T06:04:20;98343.16;;;3.59;100.00
36502;BME280;25393;46.108;3.390;2023-04-08T06:06:47;98336.34;;;3.67;100.00
36502;BME280;25393;46.108;3.390;2023-04-08T06:09:13;98355.31;;;3.82;100.00
36502;BME280;25393;46.108;3.390;2023-04-08T06:11:40;98356.75;;;3.86;100.00
36502;BME280;25393;46.108;3.390;2023-04-08T06:14:06;98350.75;;;3.95;100.00
36502;BME280;25393;46.108;3.390;2023-04-08T06:16:36;98362.19;;;4.05;100.00
36502;BME280;25393;46.108;3.390;2023-04-08T06:19:03;98367.31;;;4.29;100.00
36502;BME280;25393;46.108;3.390;2023-04-08T06:21:29;98361.25;;;4.17;100.00
36502;BME280;25393;46.108;3.390;2023-04-08T06:23:56;98362.19;;;4.16;100.00
36502;BME280;25393;46.108;3.390;2023-04-08T06:26:22;98357.69;;;4.18;100.00
36502;BME280;25393;46.108;3.390;2023-04-08T06:28:49;98344.91;;;4.25;100.00
36502;BME280;25393;46.108;3.390;2023-04-08T06:31:16;98379.06;;;4.57;100.00
36502;BME280;25393;46.108;3.390;2023-04-08T06:33:42;98363.69;;;4.52;99.13
36502;BME280;25393;46.108;3.390;2023-04-08T06:36:09;98370.13;;;4.48;97.23
36502;BME280;25393;46.108;3.390;2023-04-08T06:38:38;98381.81;;;4.55;98.22
36502;BME280;25393;46.108;3.390;2023-04-08T06:41:05;98349.72;;;4.51;98.66
36502;BME280;25393;46.108;3.390;2023-04-08T06:43:37;98353.84;;;4.65;97.57
36502;BME280;25393;46.108;3.390;2023-04-08T06:46:03;98357.81;;;4.91;95.36
36502;BME280;25393;46.108;3.390;2023-04-08T06:48:30;98376.00;;;5.15;95.25
36502;BME280;25393;46.108;3.390;2023-04-08T06:50:59;98387.72;;;5.32;93.39
36502;BME280;25393;46.108;3.390;2023-04-08T06:53:27;98367.31;;;5.24;94.24
36502;BME280;25393;46.108;3.390;2023-04-08T06:56:04;98378.25;;;5.40;91.96
36502;BME280;25393;46.108;3.390;2023-04-08T06:58:31;98366.78;;;5.41;92.39
36502;BME280;25393;46.108;3.390;2023-04-08T07:00:59;98371.06;;;5.42;92.61
36502;BME280;25393;46.108;3.390;2023-04-08T07:03:26;98373.88;;;5.50;90.72
36502;BME280;25393;46.108;3.390;2023-04-08T07:05:53;98382.81;;;5.59;90.62
36502;BME280;25393;46.108;3.390;2023-04-08T07:08:19;98361.75;;;5.59;90.62
36502;BME280;25393;46.108;3.390;2023-04-08T07:10:46;98378.34;;;5.80;90.54
36502;BME280;25393;46.108;3.390;2023-04-08T07:13:12;98367.25;;;5.97;88.62
36502;BME280;25393;46.108;3.390;2023-04-08T07:15:40;98400.94;;;6.13;88.37
36502;BME280;25393;46.108;3.390;2023-04-08T07:18:06;98382.97;;;5.88;87.65
36502;BME280;25393;46.108;3.390;2023-04-08T07:20:35;98399.81;;;6.06;90.34
36502;BME280;25393;46.108;3.390;2023-04-08T07:23:03;98394.63;;;6.16;89.69
36502;BME280;25393;46.108;3.390;2023-04-08T07:25:35;98412.34;;;6.23;88.50
36502;BME280;25393;46.108;3.390;2023-04-08T07:28:04;98408.22;;;6.30;87.90
36502;BME280;25393;46.108;3.390;2023-04-08T07:30:32;98416.28;;;6.38;88.06
36502;BME280;25393;46.108;3.390;2023-04-08T07:33:05;98416.66;;;6.24;89.03
36502;BME280;25393;46.108;3.390;2023-04-08T07:35:34;98422.38;;;6.29;91.01
36502;BME280;25393;46.108;3.390;2023-04-08T07:38:01;98399.28;;;6.52;89.96
36502;BME280;25393;46.108;3.390;2023-04-08T07:40:30;98399.22;;;7.11;88.38
36502;BME280;25393;46.108;3.390;2023-04-08T07:42:58;98403.06;;;7.65;85.52
36502;BME280;25393;46.108;3.390;2023-04-08T07:45:24;98405.31;;;8.06;83.31
36502;BME280;25393;46.108;3.390;2023-04-08T07:47:51;98409.94;;;8.04;81.14
36502;BME280;25393;46.108;3.390;2023-04-08T07:50:17;98400.16;;;8.14;82.13
36502;BME280;25393;46.108;3.390;2023-04-08T07:52:44;98397.25;;;8.54;81.46
36502;BME280;25393;46.108;3.390;2023-04-08T07:55:11;98412.19;;;9.08;79.88
36502;BME280;25393;46.108;3.390;2023-04-08T07:57:37;98378.69;;;9.52;76.79
36502;BME280;25393;46.108;3.390;2023-04-08T08:00:05;98405.69;;;10.07;70.85
36502;BME280;25393;46.108;3.390;2023-04-08T08:02:33;98413.16;;;9.86;70.20
36502;BME280;25393;46.108;3.390;2023-04-08T08:05:00;98406.56;;;9.90;70.38
36502;BME280;25393;46.108;3.390;2023-04-08T08:07:34;98411.06;;;10.15;70.62
36502;BME280;25393;46.108;3.390;2023-04-08T08:10:00;98418.88;;;10.50;69.13
36502;BME280;25393;46.108;3.390;2023-04-08T08:12:28;98399.44;;;10.92;67.44
36502;BME280;25393;46.108;3.390;2023-04-08T08:14:55;98413.78;;;11.47;65.57
36502;BME280;25393;46.108;3.390;2023-04-08T08:17:24;98414.97;;;11.93;64.40
36502;BME280;25393;46.108;3.390;2023-04-08T08:19:53;98408.41;;;12.28;62.80
36502;BME280;25393;46.108;3.390;2023-04-08T08:22:19;98388.91;;;12.52;62.32
36502;BME280;25393;46.108;3.390;2023-04-08T08:24:46;98423.53;;;13.06;63.29
36502;BME280;25393;46.108;3.390;2023-04-08T08:27:13;98412.78;;;13.30;61.68
36502;BME280;25393;46.108;3.390;2023-04-08T08:29:39;98416.91;;;13.55;59.28
36502;BME280;25393;46.108;3.390;2023-04-08T08:32:06;98409.06;;;13.76;57.66
36502;BME280;25393;46.108;3.390;2023-04-08T08:34:35;98413.38;;;14.00;58.53
36502;BME280;25393;46.108;3.390;2023-04-08T08:37:04;98413.72;;;14.49;58.32
36502;BME280;25393;46.108;3.390;2023-04-08T08:39:35;98397.78;;;14.70;57.28
36502;BME280;25393;46.108;3.390;2023-04-08T08:42:02;98398.47;;;14.93;55.82
36502;BME280;25393;46.108;3.390;2023-04-08T08:44:35;98413.53;;;15.37;53.28
36502;BME280;25393;46.108;3.390;2023-04-08T08:47:05;98394.47;;;15.40;53.04
36502;BME280;25393;46.108;3.390;2023-04-08T08:49:34;98412.34;;;15.82;52.35
36502;BME280;25393;46.108;3.390;2023-04-08T08:52:01;98390.25;;;16.01;53.11
36502;BME280;25393;46.108;3.390;2023-04-08T08:54:29;98417.69;;;16.72;52.34
36502;BME280;25393;46.108;3.390;2023-04-08T08:56:57;98395.09;;;16.81;48.24
36502;BME280;25393;46.108;3.390;2023-04-08T08:59:24;98401.94;;;16.96;49.04
36502;BME280;25393;46.108;3.390;2023-04-08T09:01:50;98413.75;;;17.22;51.14
36502;BME280;25393;46.108;3.390;2023-04-08T09:04:19;98390.53;;;17.42;49.38
36502;BME280;25393;46.108;3.390;2023-04-08T09:06:49;98409.34;;;17.62;49.74
36502;BME280;25393;46.108;3.390;2023-04-08T09:09:17;98387.72;;;17.96;47.61
36502;BME280;25393;46.108;3.390;2023-04-08T09:11:45;98401.69;;;18.37;46.87
36502;BME280;25393;46.108;3.390;2023-04-08T09:14:22;98417.28;;;18.80;45.35
36502;BME280;25393;46.108;3.390;2023-04-08T09:16:50;98400.06;;;19.01;45.83
36502;BME280;25393;46.108;3.390;2023-04-08T09:19:18;98406.69;;;19.42;44.48
36502;BME280;25393;46.108;3.390;2023-04-08T09:21:44;98387.06;;;19.42;44.53
36502;BME280;25393;46.108;3.390;2023-04-08T09:24:27;98407.56;;;19.68;42.52
36502;BME280;25393;46.108;3.390;2023-04-08T09:26:54;98399.59;;;19.55;42.90
36502;BME280;25393;46.108;3.390;2023-04-08T09:29:25;98408.47;;;19.11;44.35
36502;BME280;25393;46.108;3.390;2023-04-08T09:31:59;98407.25;;;19.13;46.30
36502;BME280;25393;46.108;3.390;2023-04-08T09:34:28;98402.09;;;19.50;45.77
36502;BME280;25393;46.108;3.390;2023-04-08T09:37:00;98403.31;;;19.54;44.69
36502;BME280;25393;46.108;3.390;2023-04-08T09:39:26;98399.06;;;19.95;45.11
36502;BME280;25393;46.108;3.390;2023-04-08T09:41:55;98393.81;;;20.50;43.17
36502;BME280;25393;46.108;3.390;2023-04-08T09:44:25;98374.22;;;20.43;41.25
36502;BME280;25393;46.108;3.390;2023-04-08T09:49:39;98388.81;;;20.72;42.80
36502;BME280;25393;46.108;3.390;2023-04-08T09:52:17;98396.56;;;21.16;41.53
36502;BME280;25393;46.108;3.390;2023-04-08T09:57:32;98397.47;;;21.40;42.00
36502;BME280;25393;46.108;3.390;2023-04-08T10:00:08;98391.81;;;21.71;39.29
36502;BME280;25393;46.108;3.390;2023-04-08T10:05:36;98394.78;;;21.70;42.07
36502;BME280;25393;46.108;3.390;2023-04-08T10:08:05;98373.78;;;21.60;41.22
36502;BME280;25393;46.108;3.390;2023-04-08T10:10:38;98391.56;;;22.03;41.13
36502;BME280;25393;46.108;3.390;2023-04-08T10:13:06;98386.97;;;22.50;40.63
36502;BME280;25393;46.108;3.390;2023-04-08T10:15:36;98381.41;;;22.91;38.72
36502;BME280;25393;46.108;3.390;2023-04-08T10:20:41;98375.91;;;22.63;39.84
36502;BME280;25393;46.108;3.390;2023-04-08T10:23:11;98391.69;;;22.31;38.25
36502;BME280;25393;46.108;3.390;2023-04-08T10:25:40;98381.00;;;22.24;38.63
36502;BME280;25393;46.108;3.390;2023-04-08T10:30:43;98396.50;;;22.40;41.27
36502;BME280;25393;46.108;3.390;2023-04-08T10:33:15;98382.38;;;22.85;39.27
36502;BME280;25393;46.108;3.390;2023-04-08T10:35:52;98384.47;;;23.23;39.28
36502;BME280;25393;46.108;3.390;2023-04-08T10:38:19;98382.94;;;23.27;38.53
36502;BME280;25393;46.108;3.390;2023-04-08T10:40:47;98369.41;;;23.55;37.81
36502;BME280;25393;46.108;3.390;2023-04-08T10:43:14;98365.31;;;23.24;37.35
36502;BME280;25393;46.108;3.390;2023-04-08T10:45:42;98375.78;;;22.93;37.36
36502;BME280;25393;46.108;3.390;2023-04-08T10:48:21;98387.94;;;22.55;38.30
36502;BME280;25393;46.108;3.390;2023-04-08T10:50:58;98375.31;;;22.84;37.63
36502;BME280;25393;46.108;3.390;2023-04-08T10:53:32;98363.28;;;23.31;38.05
36502;BME280;25393;46.108;3.390;2023-04-08T10:56:13;98361.16;;;23.62;37.17
36502;BME280;25393;46.108;3.390;2023-04-08T10:58:49;98358.72;;;23.32;37.42
36502;BME280;25393;46.108;3.390;2023-04-08T11:01:16;98335.31;;;23.26;38.61
36502;BME280;25393;46.108;3.390;2023-04-08T11:03:42;98356.19;;;23.14;37.71
36502;BME280;25393;46.108;3.390;2023-04-08T11:06:10;98365.53;;;23.23;38.46
36502;BME280;25393;46.108;3.390;2023-04-08T11:08:37;98334.03;;;22.72;37.73
36502;BME280;25393;46.108;3.390;2023-04-08T11:11:05;98352.94;;;22.49;36.95
36502;BME280;25393;46.108;3.390;2023-04-08T11:13:38;98358.91;;;23.14;37.30
36502;BME280;25393;46.108;3.390;2023-04-08T11:16:11;98352.41;;;23.71;37.28
36502;BME280;25393;46.108;3.390;2023-04-08T11:18:44;98336.41;;;23.86;36.67
36502;BME280;25393;46.108;3.390;2023-04-08T11:21:11;98352.91;;;23.85;36.83
36502;BME280;25393;46.108;3.390;2023-04-08T11:23:38;98329.50;;;23.62;36.53
36502;BME280;25393;46.108;3.390;2023-04-08T11:26:04;98342.81;;;23.80;35.45
36502;BME280;25393;46.108;3.390;2023-04-08T11:28:35;98344.41;;;23.65;35.66
36502;BME280;25393;46.108;3.390;2023-04-08T11:31:04;98351.66;;;24.09;36.46
36502;BME280;25393;46.108;3.390;2023-04-08T11:33:35;98338.03;;;24.59;36.59
36502;BME280;25393;46.108;3.390;2023-04-08T11:36:08;98337.22;;;23.87;34.65
36502;BME280;25393;46.108;3.390;2023-04-08T11:38:38;98348.56;;;23.39;35.52
36502;BME280;25393;46.108;3.390;2023-04-08T11:41:06;98345.00;;;23.83;34.89
36502;BME280;25393;46.108;3.390;2023-04-08T11:43:33;98342.38;;;23.55;35.59
36502;BME280;25393;46.108;3.390;2023-04-08T11:46:11;98334.09;;;24.12;33.23
36502;BME280;25393;46.108;3.390;2023-04-08T11:48:38;98333.13;;;23.68;34.00
36502;BME280;25393;46.108;3.390;2023-04-08T11:51:06;98331.47;;;23.22;35.24
36502;BME280;25393;46.108;3.390;2023-04-08T11:53:37;98328.91;;;23.15;34.26
36502;BME280;25393;46.108;3.390;2023-04-08T11:56:20;98345.69;;;23.29;36.38
36502;BME280;25393;46.108;3.390;2023-04-08T11:58:49;98345.34;;;23.54;35.54
36502;BME280;25393;46.108;3.390;2023-04-08T12:01:15;98321.25;;;23.40;35.22
36502;BME280;25393;46.108;3.390;2023-04-08T12:03:59;98317.63;;;23.47;36.04
36502;BME280;25393;46.108;3.390;2023-04-08T12:06:28;98327.78;;;24.23;35.81
36502;BME280;25393;46.108;3.390;2023-04-08T12:08:55;98331.25;;;25.00;35.14
36502;BME280;25393;46.108;3.390;2023-04-08T12:11:22;98331.56;;;23.88;34.55
36502;BME280;25393;46.108;3.390;2023-04-08T12:13:49;98336.72;;;23.90;34.33
36502;BME280;25393;46.108;3.390;2023-04-08T12:16:17;98335.72;;;23.96;34.06
36502;BME280;25393;46.108;3.390;2023-04-08T12:18:44;98330.03;;;24.48;34.94
36502;BME280;25393;46.108;3.390;2023-04-08T12:21:10;98331.50;;;24.77;34.13
36502;BME280;25393;46.108;3.390;2023-04-08T12:23:37;98299.72;;;24.12;32.92
36502;BME280;25393;46.108;3.390;2023-04-08T12:26:06;98324.66;;;24.31;34.18
36502;BME280;25393;46.108;3.390;2023-04-08T12:28:36;98328.75;;;24.00;32.80
36502;BME280;25393;46.108;3.390;2023-04-08T12:31:06;98313.09;;;24.19;33.72
36502;BME280;25393;46.108;3.390;2023-04-08T12:33:36;98310.03;;;24.54;32.96
36502;BME280;25393;46.108;3.390;2023-04-08T12:36:05;98323.84;;;24.30;32.32
36502;BME280;25393;46.108;3.390;2023-04-08T12:38:32;98305.59;;;23.71;33.28
36502;BME280;25393;46.108;3.390;2023-04-08T12:41:00;98312.09;;;22.97;33.05
36502;BME280;25393;46.108;3.390;2023-04-08T12:43:26;98335.38;;;22.86;35.24
36502;BME280;25393;46.108;3.390;2023-04-08T12:45:53;98319.19;;;23.31;34.55
36502;BME280;25393;46.108;3.390;2023-04-08T12:48:19;98322.09;;;24.08;32.48
36502;BME280;25393;46.108;3.390;2023-04-08T12:50:46;98313.09;;;23.69;32.71
36502;BME280;25393;46.108;3.390;2023-04-08T12:53:12;98302.94;;;23.43;35.49
36502;BME280;25393;46.108;3.390;2023-04-08T12:55:39;98325.31;;;23.26;34.39
36502;BME280;25393;46.108;3.390;2023-04-08T12:58:09;98303.66;;;21.60;34.23
36502;BME280;25393;46.108;3.390;2023-04-08T13:00:35;98318.19;;;21.82;35.25
36502;BME280;25393;46.108;3.390;2023-04-08T13:03:05;98315.53;;;21.94;34.75
36502;BME280;25393;46.108;3.390;2023-04-08T13:05:36;98300.50;;;22.21;35.64
36502;BME280;25393;46.108;3.390;2023-04-08T13:08:09;98312.59;;;22.82;35.29
36502;BME280;25393;46.108;3.390;2023-04-08T13:10:40;98306.16;;;22.83;34.78
36502;BME280;25393;46.108;3.390;2023-04-08T13:13:07;98309.56;;;22.78;35.27
36502;BME280;25393;46.108;3.390;2023-04-08T13:15:36;98303.97;;;23.25;34.05
36502;BME280;25393;46.108;3.390;2023-04-08T13:18:04;98276.53;;;24.16;35.40
36502;BME280;25393;46.108;3.390;2023-04-08T13:20:31;98298.94;;;24.99;32.39
36502;BME280;25393;46.108;3.390;2023-04-08T13:23:01;98288.31;;;23.94;31.30
36502;BME280;25393;46.108;3.390;2023-04-08T13:25:33;98279.38;;;22.18;32.17
36502;BME280;25393;46.108;3.390;2023-04-08T13:28:05;98308.22;;;21.83;33.60
36502;BME280;25393;46.108;3.390;2023-04-08T13:30:32;98292.88;;;22.07;34.24